Time;durP1;ratioP1;P1;durP2;ratioP2;P2;SDS_P1;SDS_P2;PMS_P1;PMS_P2;Temp;Humidity;BMP_temperature;BMP_pressure;BME280_temperature;BME280_humidity;BME280_pressure;Samples;Min_cycle;Max_cycle;Signal;HPM_P1;HPM_P2
2020/12/04 00:00:24;;;;;;;13.93;7.23;;;;;;;4.67;100.00;95865.44;5115386;28;20223;-77
2020/12/04 00:02:51;;;;;;;11.63;6.30;;;;;;;4.70;100.00;95851.00;5115338;28;20250;-77
2020/12/04 00:05:17;;;;;;;13.20;6.57;;;;;;;4.59;100.00;95804.16;5107845;28;20196;-78
2020/12/04 00:07:44;;;;;;;13.37;6.80;;;;;;;4.42;100.00;95798.63;5116026;28;20219;-77
2020/12/04 00:10:11;;;;;;;12.77;6.40;;;;;;;4.34;100.00;95782.25;5115764;28;20216;-76
2020/12/04 00:12:40;;;;;;;12.23;6.37;;;;;;;4.22;100.00;95761.03;5114555;28;20215;-78
2020/12/04 00:15:07;;;;;;;13.63;6.83;;;;;;;4.46;100.00;95754.09;5109025;28;20225;-78
2020/12/04 00:17:34;;;;;;;13.13;6.17;;;;;;;4.56;100.00;95749.13;5114011;28;20660;-77
2020/12/04 00:20:01;;;;;;;15.53;7.30;;;;;;;4.49;100.00;95745.75;5115521;28;20219;-77
2020/12/04 00:22:28;;;;;;;12.70;6.50;;;;;;;4.70;100.00;95759.38;5112200;28;20189;-78
2020/12/04 00:24:55;;;;;;;12.63;6.23;;;;;;;4.97;100.00;95755.41;5108116;28;20192;-78
2020/12/04 00:27:22;;;;;;;12.73;6.60;;;;;;;4.40;100.00;95752.34;5108095;28;20193;-79
2020/12/04 00:29:48;;;;;;;12.10;6.20;;;;;;;4.68;100.00;95758.75;5115132;28;20199;-81
2020/12/04 00:32:15;;;;;;;12.17;5.90;;;;;;;4.87;100.00;95757.75;5114703;28;20222;-79
2020/12/04 00:34:43;;;;;;;9.73;5.60;;;;;;;4.59;100.00;95749.53;5115150;28;20200;-79
2020/12/04 00:37:12;;;;;;;11.73;6.40;;;;;;;4.81;100.00;95761.28;5114775;28;20287;-79
2020/12/04 00:39:39;;;;;;;11.43;6.53;;;;;;;4.69;100.00;95743.72;5115087;28;20204;-78
2020/12/04 00:42:06;;;;;;;13.40;6.87;;;;;;;4.23;100.00;95744.19;5114569;28;20272;-78
2020/12/04 00:44:33;;;;;;;13.63;7.53;;;;;;;4.17;100.00;95731.84;5114865;28;20222;-78
2020/12/04 00:47:00;;;;;;;11.23;5.53;;;;;;;4.48;100.00;95721.19;5114947;28;20680;-77
2020/12/04 00:49:27;;;;;;;15.23;6.40;;;;;;;4.66;100.00;95720.38;5115061;28;20261;-79
2020/12/04 00:51:55;;;;;;;11.47;5.63;;;;;;;4.69;100.00;95715.50;5114500;28;20229;-78
2020/12/04 00:54:21;;;;;;;12.30;6.30;;;;;;;4.47;100.00;95724.84;5115801;27;20207;-77
2020/12/04 00:56:48;;;;;;;11.73;5.90;;;;;;;4.31;100.00;95709.59;5114964;28;20208;-78
2020/12/04 00:59:15;;;;;;;12.10;5.83;;;;;;;4.35;100.00;95707.31;5114683;28;20197;-79
2020/12/04 01:01:42;;;;;;;13.50;6.70;;;;;;;3.92;100.00;95682.75;5112168;28;20715;-78
2020/12/04 01:04:08;;;;;;;10.93;6.80;;;;;;;4.12;100.00;95697.38;5113409;28;20211;-78
2020/12/04 01:06:36;;;;;;;11.13;5.67;;;;;;;4.56;100.00;95704.25;5110189;28;20204;-79
2020/12/04 01:09:04;;;;;;;16.27;7.33;;;;;;;3.93;100.00;95684.38;5115346;28;20196;-79
2020/12/04 01:11:32;;;;;;;12.47;6.87;;;;;;;4.42;100.00;95698.28;5111768;28;20215;-76
2020/12/04 01:13:59;;;;;;;12.47;6.30;;;;;;;3.98;100.00;95684.53;5114231;28;20219;-76
2020/12/04 01:16:25;;;;;;;14.30;7.37;;;;;;;3.80;100.00;95676.56;5114371;27;20203;-76
2020/12/04 01:18:52;;;;;;;14.10;7.27;;;;;;;4.04;100.00;95678.38;5114729;28;20191;-79
2020/12/04 01:21:19;;;;;;;13.13;6.53;;;;;;;4.25;100.00;95677.97;5120970;28;20214;-78
2020/12/04 01:23:46;;;;;;;17.47;6.37;;;;;;;4.36;100.00;95669.34;5124001;28;20203;-78
2020/12/04 01:26:13;;;;;;;13.47;6.20;;;;;;;4.40;100.00;95676.59;5120139;28;20199;-77
2020/12/04 01:28:41;;;;;;;11.33;6.20;;;;;;;4.42;100.00;95674.53;5114981;28;20197;-77
2020/12/04 01:31:09;;;;;;;12.17;6.23;;;;;;;4.48;100.00;95675.50;5116414;28;20221;-77
2020/12/04 01:33:36;;;;;;;12.07;6.40;;;;;;;4.63;100.00;95694.44;5121274;28;20216;-78
2020/12/04 01:36:03;;;;;;;13.80;6.70;;;;;;;4.59;100.00;95680.88;5127234;28;20200;-79
2020/12/04 01:38:30;;;;;;;14.27;6.50;;;;;;;4.59;100.00;95678.22;5117362;28;20196;-79
2020/12/04 01:41:01;;;;;;;13.33;6.40;;;;;;;4.44;100.00;95672.50;5111435;28;20231;-79
2020/12/04 01:43:29;;;;;;;11.37;6.43;;;;;;;4.71;98.80;95668.53;5114073;28;20564;-79
2020/12/04 01:45:56;;;;;;;12.43;6.43;;;;;;;4.37;100.00;95663.03;5114113;28;20196;-78
2020/12/04 01:48:23;;;;;;;11.27;6.10;;;;;;;4.36;100.00;95667.50;5113702;28;20199;-78
2020/12/04 01:50:51;;;;;;;17.07;7.10;;;;;;;4.09;100.00;95660.06;5113138;28;20231;-76
2020/12/04 01:53:19;;;;;;;14.77;6.93;;;;;;;4.01;100.00;95652.44;5108337;27;20278;-76
2020/12/04 01:55:46;;;;;;;13.80;7.13;;;;;;;3.90;100.00;95643.41;5110762;28;20201;-76
2020/12/04 01:58:13;;;;;;;15.90;6.73;;;;;;;4.04;100.00;95636.16;5115439;28;20726;-76
2020/12/04 02:00:40;;;;;;;14.20;7.40;;;;;;;3.92;100.00;95632.63;5113604;28;20244;-81
2020/12/04 02:03:08;;;;;;;15.43;6.67;;;;;;;4.25;100.00;95623.34;5113651;27;20195;-78
2020/12/04 02:05:39;;;;;;;11.87;6.70;;;;;;;3.88;100.00;95620.91;5113111;28;20196;-78
2020/12/04 02:08:09;;;;;;;14.50;6.97;;;;;;;3.99;100.00;95622.81;5112660;28;20653;-79
2020/12/04 02:10:40;;;;;;;13.60;6.43;;;;;;;4.29;100.00;95621.91;5113206;28;20215;-78
2020/12/04 02:13:07;;;;;;;12.03;6.07;;;;;;;4.10;100.00;95614.16;5112565;28;20227;-76
2020/12/04 02:15:35;;;;;;;11.67;5.90;;;;;;;4.41;100.00;95614.03;5112983;28;20663;-77
2020/12/04 02:18:04;;;;;;;15.53;7.10;;;;;;;4.56;100.00;95614.47;5112284;28;20288;-77
2020/12/04 02:20:32;;;;;;;11.67;6.23;;;;;;;4.35;100.00;95610.47;5109052;28;20227;-77
2020/12/04 02:22:59;;;;;;;13.83;6.50;;;;;;;4.50;100.00;95604.78;5104983;28;20207;-78
2020/12/04 02:25:26;;;;;;;15.17;7.00;;;;;;;4.61;100.00;95607.50;5114166;28;20203;-77
2020/12/04 02:27:53;;;;;;;13.20;6.90;;;;;;;4.31;100.00;95592.66;5113927;28;20196;-77
2020/12/04 02:30:23;;;;;;;16.40;7.30;;;;;;;4.69;99.40;95588.72;5114375;28;20219;-77
2020/12/04 02:32:49;;;;;;;13.03;6.87;;;;;;;4.19;100.00;95575.91;5113863;28;20730;-78
2020/12/04 02:35:16;;;;;;;13.87;6.53;;;;;;;4.48;100.00;95589.16;5113469;28;20644;-77
2020/12/04 02:37:44;;;;;;;12.30;7.00;;;;;;;4.42;100.00;95586.63;5113045;28;20229;-79
2020/12/04 02:40:11;;;;;;;15.13;7.40;;;;;;;4.65;99.48;95579.63;5112582;28;20222;-78
2020/12/04 02:42:37;;;;;;;12.20;7.03;;;;;;;4.71;98.16;95586.66;5112657;28;20211;-78
2020/12/04 02:45:04;;;;;;;13.50;7.00;;;;;;;4.77;98.96;95583.09;5109004;28;20215;-78
2020/12/04 02:47:31;;;;;;;13.10;6.77;;;;;;;4.83;98.75;95584.84;5106927;28;20652;-79
2020/12/04 02:49:58;;;;;;;10.87;6.23;;;;;;;4.73;100.00;95581.16;5111114;28;20670;-78
2020/12/04 02:52:25;;;;;;;13.57;6.10;;;;;;;4.88;100.00;95582.34;5102827;28;20221;-79
2020/12/04 02:54:53;;;;;;;12.50;6.07;;;;;;;4.38;100.00;95577.53;5112474;28;20203;-79
2020/12/04 02:57:20;;;;;;;12.73;6.60;;;;;;;4.70;100.00;95571.84;5113013;28;20199;-79
2020/12/04 02:59:46;;;;;;;13.13;6.73;;;;;;;4.72;100.00;95577.69;5112166;28;20628;-79
2020/12/04 03:02:13;;;;;;;12.27;6.17;;;;;;;4.67;100.00;95584.69;5104068;28;20180;-79
2020/12/04 03:04:40;;;;;;;11.87;6.90;;;;;;;4.61;100.00;95578.44;5107361;28;20200;-78
2020/12/04 03:07:07;;;;;;;14.20;6.63;;;;;;;4.13;100.00;95568.88;5111569;28;20201;-79
2020/12/04 03:09:34;;;;;;;11.10;6.00;;;;;;;4.50;100.00;95568.63;5111937;28;20196;-79
2020/12/04 03:12:01;;;;;;;11.67;6.10;;;;;;;4.55;100.00;95563.50;5112077;28;20710;-79
2020/12/04 03:14:28;;;;;;;10.87;6.07;;;;;;;4.29;100.00;95548.00;5107854;28;20205;-78
2020/12/04 03:16:55;;;;;;;12.43;6.27;;;;;;;4.50;100.00;95560.72;5111719;28;20560;-80
2020/12/04 03:19:21;;;;;;;11.90;6.40;;;;;;;4.59;100.00;95548.81;5104877;28;20203;-79
2020/12/04 03:21:48;;;;;;;14.37;6.50;;;;;;;4.63;100.00;95549.97;5110021;28;20213;-79
2020/12/04 03:24:15;;;;;;;12.63;6.53;;;;;;;4.72;100.00;95558.41;5113288;28;20199;-80
2020/12/04 03:26:42;;;;;;;12.37;6.57;;;;;;;4.55;100.00;95557.41;5116752;28;20636;-79
2020/12/04 03:29:10;;;;;;;14.67;6.70;;;;;;;4.55;100.00;95558.22;5116661;28;20572;-79
2020/12/04 03:31:36;;;;;;;11.50;6.17;;;;;;;4.62;100.00;95556.28;5116439;28;20227;-79
2020/12/04 03:34:03;;;;;;;13.50;6.63;;;;;;;4.65;100.00;95566.41;5115535;28;20230;-80
2020/12/04 03:36:30;;;;;;;10.73;5.77;;;;;;;4.73;100.00;95576.66;5116226;28;20196;-76
2020/12/04 03:38:57;;;;;;;14.33;6.47;;;;;;;4.76;100.00;95581.50;5116192;28;20200;-79
2020/12/04 03:41:23;;;;;;;10.97;5.90;;;;;;;4.91;100.00;95578.44;5116147;28;20232;-80
2020/12/04 03:43:50;;;;;;;19.43;9.50;;;;;;;4.81;100.00;95604.59;5116503;28;20215;-79
2020/12/04 03:46:18;;;;;;;11.97;6.37;;;;;;;4.61;100.00;95609.31;5116029;28;20216;-79
2020/12/04 03:48:45;;;;;;;12.53;6.07;;;;;;;4.72;100.00;95617.31;5116223;28;20196;-79
2020/12/04 03:51:11;;;;;;;11.80;6.33;;;;;;;4.88;99.81;95623.81;5115215;28;20228;-79
2020/12/04 03:53:38;;;;;;;15.93;6.07;;;;;;;4.62;100.00;95595.91;5115982;28;20223;-79
2020/12/04 03:56:05;;;;;;;12.40;5.70;;;;;;;4.79;98.64;95604.84;5116103;28;20197;-79
2020/12/04 03:58:32;;;;;;;10.53;5.63;;;;;;;4.77;97.73;95591.03;5116372;28;20215;-80
2020/12/04 04:00:59;;;;;;;10.80;5.50;;;;;;;4.63;100.00;95597.50;5099987;28;20228;-79
2020/12/04 04:03:26;;;;;;;9.93;5.43;;;;;;;4.89;100.00;95601.66;5116378;28;20200;-79
2020/12/04 04:05:53;;;;;;;10.63;5.83;;;;;;;5.05;100.00;95591.25;5122662;27;20653;-79
2020/12/04 04:08:20;;;;;;;12.90;6.17;;;;;;;4.86;100.00;95584.41;5124817;28;20198;-80
2020/12/04 04:10:47;;;;;;;11.33;5.53;;;;;;;5.03;100.00;95588.00;5130497;22;20225;-84
2020/12/04 04:13:14;;;;;;;10.60;5.57;;;;;;;4.66;100.00;95570.66;5098531;28;20217;-83
2020/12/04 04:15:40;;;;;;;10.10;5.60;;;;;;;4.75;100.00;95577.25;5097383;28;20317;-83
2020/12/04 04:18:07;;;;;;;13.20;6.33;;;;;;;4.82;100.00;95571.88;5095345;28;20206;-84
2020/12/04 04:20:35;;;;;;;12.57;5.87;;;;;;;4.71;100.00;95575.25;5090614;28;20620;-83
2020/12/04 04:23:02;;;;;;;13.67;6.17;;;;;;;4.79;100.00;95574.97;5100801;28;20200;-81
2020/12/04 04:25:28;;;;;;;10.80;5.53;;;;;;;4.97;100.00;95570.44;5096520;28;20218;-80
2020/12/04 04:27:55;;;;;;;12.40;6.63;;;;;;;5.11;100.00;95576.31;5091639;28;20266;-83
2020/12/04 04:30:22;;;;;;;15.70;6.43;;;;;;;5.02;100.00;95586.41;5081645;28;20222;-79
2020/12/04 04:32:49;;;;;;;9.60;5.60;;;;;;;5.14;100.00;95584.59;5090586;28;20233;-79
2020/12/04 04:35:16;;;;;;;12.83;5.57;;;;;;;5.21;100.00;95582.69;5091750;28;20198;-80
2020/12/04 04:37:44;;;;;;;13.03;6.07;;;;;;;5.27;100.00;95591.53;5090939;28;20198;-82
2020/12/04 04:40:10;;;;;;;9.73;5.50;;;;;;;5.19;100.00;95600.59;5103573;28;20202;-82
2020/12/04 04:42:37;;;;;;;11.30;5.40;;;;;;;5.13;100.00;95611.28;5094236;28;20204;-80
2020/12/04 04:45:04;;;;;;;11.87;5.83;;;;;;;5.13;100.00;95606.00;5078012;28;20293;-80
2020/12/04 04:47:32;;;;;;;12.50;6.00;;;;;;;4.77;100.00;95622.72;5083377;28;20201;-81
2020/12/04 04:49:59;;;;;;;12.00;5.63;;;;;;;4.82;100.00;95599.09;5096358;28;20296;-81
2020/12/04 04:52:26;;;;;;;11.63;5.47;;;;;;;5.02;100.00;95614.69;5092795;28;20209;-82
2020/12/04 04:54:53;;;;;;;13.37;5.67;;;;;;;5.20;100.00;95611.97;5091675;28;20210;-80
2020/12/04 04:57:22;;;;;;;11.13;5.67;;;;;;;5.23;100.00;95616.81;5085001;28;20202;-82
2020/12/04 04:59:49;;;;;;;16.77;5.90;;;;;;;4.82;100.00;95614.94;5084583;28;20210;-80
2020/12/04 05:02:16;;;;;;;11.10;5.83;;;;;;;5.18;100.00;95614.06;5088456;28;20291;-82
2020/12/04 05:04:54;;;;;;;10.30;5.33;;;;;;;4.61;100.00;95594.28;5092068;28;20198;-81
2020/12/04 05:07:27;;;;;;;11.40;6.50;;;;;;;4.84;100.00;95590.94;5077620;28;20202;-81
2020/12/04 05:10:08;;;;;;;11.43;6.00;;;;;;;4.86;100.00;95592.34;5093502;28;20200;-81
2020/12/04 05:12:35;;;;;;;10.17;5.53;;;;;;;5.32;100.00;95599.59;5072959;28;20274;-81
2020/12/04 05:15:19;;;;;;;10.67;5.47;;;;;;;5.35;100.00;95599.97;5071561;28;20305;-79
2020/12/04 05:18:00;;;;;;;10.97;5.70;;;;;;;5.48;100.00;95589.16;5079399;28;20199;-79
2020/12/04 05:20:27;;;;;;;9.77;5.27;;;;;;;5.45;100.00;95567.66;5086510;28;20296;-80
2020/12/04 05:22:56;;;;;;;9.93;5.13;;;;;;;5.41;100.00;95580.53;5086837;28;20205;-81
2020/12/04 05:25:23;;;;;;;16.07;6.60;;;;;;;5.34;100.00;95581.66;5082628;28;20217;-80
2020/12/04 05:27:50;;;;;;;13.63;6.63;;;;;;;5.25;100.00;95562.69;5077110;28;20205;-82
2020/12/04 05:30:24;;;;;;;11.20;5.57;;;;;;;4.99;100.00;95559.63;5089260;28;20229;-80
2020/12/04 05:33:01;;;;;;;11.23;5.70;;;;;;;5.16;100.00;95558.75;5091037;28;20591;-81
2020/12/04 05:35:28;;;;;;;11.07;5.00;;;;;;;4.81;100.00;95551.75;5094217;28;20626;-83
2020/12/04 05:38:22;;;;;;;12.00;5.50;;;;;;;5.22;100.00;95549.91;5095264;28;20266;-83
2020/12/04 05:40:51;;;;;;;11.00;4.83;;;;;;;4.94;98.53;95541.00;5045031;28;20214;-82
2020/12/04 05:43:29;;;;;;;8.57;4.47;;;;;;;4.90;99.61;95548.59;5081982;28;20205;-83
2020/12/04 05:46:19;;;;;;;8.63;4.97;;;;;;;5.17;95.94;95554.25;5073153;28;20226;-82
2020/12/04 05:48:56;;;;;;;10.00;5.40;;;;;;;5.55;94.69;95558.13;5086975;28;20686;-82
2020/12/04 05:51:25;;;;;;;10.57;5.03;;;;;;;5.66;94.83;95554.69;5080487;28;20250;-80
2020/12/04 05:53:53;;;;;;;9.17;5.40;;;;;;;5.77;93.91;95561.81;5087957;28;20221;-82
2020/12/04 05:56:21;;;;;;;8.70;4.80;;;;;;;5.70;98.65;95560.31;5080266;28;20206;-82
2020/12/04 05:58:48;;;;;;;11.73;5.20;;;;;;;5.50;97.47;95562.50;5064804;28;20263;-81
2020/12/04 06:01:17;;;;;;;9.77;5.10;;;;;;;5.61;97.84;95561.69;5083056;28;20230;-82
2020/12/04 06:03:47;;;;;;;9.47;5.07;;;;;;;5.65;98.39;95553.06;5087223;28;20726;-83
2020/12/04 06:06:23;;;;;;;10.50;5.50;;;;;;;5.35;100.00;95533.03;5090190;28;20588;-82
2020/12/04 06:08:50;;;;;;;11.27;4.60;;;;;;;5.41;94.98;95538.22;5081288;28;20203;-82
2020/12/04 06:11:17;;;;;;;9.43;4.60;;;;;;;5.69;94.15;95546.28;5086015;28;20236;-82
2020/12/04 06:13:45;;;;;;;8.43;3.90;;;;;;;5.85;91.75;95532.38;5106753;28;20693;-81
2020/12/04 06:16:13;;;;;;;6.47;3.97;;;;;;;5.72;92.08;95518.53;5094033;28;20200;-80
2020/12/04 06:18:40;;;;;;;13.13;4.73;;;;;;;5.34;94.60;95513.72;5099931;28;20207;-84
2020/12/04 06:21:07;;;;;;;10.43;5.17;;;;;;;5.43;95.92;95512.34;5103624;28;20712;-85
2020/12/04 06:23:34;;;;;;;9.80;4.50;;;;;;;5.47;95.39;95520.63;5097164;28;20210;-84
2020/12/04 06:26:03;;;;;;;8.87;4.67;;;;;;;5.60;94.36;95528.34;5108351;28;20202;-81
2020/12/04 06:28:36;;;;;;;16.27;4.80;;;;;;;5.72;92.91;95532.59;5119479;28;20219;-83
2020/12/04 06:31:13;;;;;;;30.25;6.32;;;;;;;5.71;93.06;95536.28;5092023;28;20533;-77
2020/12/04 06:33:47;;;;;;;16.07;5.60;;;;;;;5.51;94.03;95525.25;5100207;28;20231;-85
2020/12/04 06:36:34;;;;;;;16.80;4.93;;;;;;;5.49;93.54;95524.63;5121367;28;20197;-84
2020/12/04 06:39:03;;;;;;;12.13;5.10;;;;;;;5.76;90.73;95543.50;5116938;28;20682;-80
2020/12/04 06:41:33;;;;;;;12.23;4.37;;;;;;;5.62;91.78;95516.50;5099706;28;20304;-82
2020/12/04 06:44:02;;;;;;;8.97;4.93;;;;;;;5.30;94.93;95506.47;5105188;28;20230;-84
2020/12/04 06:46:34;;;;;;;11.33;3.93;;;;;;;5.61;93.62;95514.88;5095671;28;20197;-85
2020/12/04 06:49:34;;;;;;;10.00;5.53;;;;;;;5.18;96.65;95508.31;5095520;28;20218;-88
2020/12/04 06:52:06;;;;;;;9.50;5.90;;;;;;;5.03;98.15;95495.53;5099673;28;20494;-85
2020/12/04 06:54:34;;;;;;;10.87;5.60;;;;;;;5.35;93.80;95509.25;5097722;28;20223;-83
2020/12/04 06:57:01;;;;;;;11.23;4.83;;;;;;;5.29;95.20;95507.53;5104370;28;20197;-85
2020/12/04 06:59:29;;;;;;;11.50;5.37;;;;;;;5.71;91.95;95514.28;5084091;28;20208;-83
2020/12/04 07:02:08;;;;;;;9.03;4.47;;;;;;;5.45;90.42;95528.00;5101286;28;20287;-83
2020/12/04 07:04:37;;;;;;;11.60;5.30;;;;;;;5.77;89.95;95543.28;5105544;28;20213;-83
2020/12/04 07:07:06;;;;;;;9.33;4.90;;;;;;;5.86;89.70;95541.94;5103160;28;20239;-84
2020/12/04 07:09:33;;;;;;;11.43;5.20;;;;;;;5.64;91.51;95545.38;5099354;28;20285;-82
2020/12/04 07:12:01;;;;;;;11.50;5.23;;;;;;;5.53;91.02;95543.53;5093769;28;20325;-81
2020/12/04 07:14:28;;;;;;;16.33;6.10;;;;;;;5.53;91.67;95541.66;5100688;28;20218;-84
2020/12/04 07:16:55;;;;;;;13.83;5.33;;;;;;;5.74;90.67;95522.56;5083991;28;20202;-79
2020/12/04 07:19:23;;;;;;;10.33;5.27;;;;;;;5.47;92.88;95523.25;5084905;28;20285;-75
2020/12/04 07:21:51;;;;;;;10.17;5.60;;;;;;;5.47;93.36;95524.09;5083297;28;20236;-80
2020/12/04 07:24:18;;;;;;;11.63;5.70;;;;;;;5.32;94.31;95520.25;5081906;28;20192;-74
2020/12/04 07:26:51;;;;;;;10.40;5.27;;;;;;;5.48;93.11;95517.75;5082789;28;20203;-80
2020/12/04 07:29:18;;;;;;;12.50;6.27;;;;;;;5.54;94.93;95510.75;5100320;28;20650;-80
2020/12/04 07:31:49;;;;;;;11.53;5.90;;;;;;;5.37;95.97;95502.69;5107430;28;20885;-77
2020/12/04 07:34:21;;;;;;;12.87;5.53;;;;;;;5.92;92.02;95511.91;5085775;28;20226;-76
2020/12/04 07:36:53;;;;;;;10.17;5.20;;;;;;;5.60;92.94;95530.97;5084923;28;20237;-75
2020/12/04 07:39:25;;;;;;;10.80;5.10;;;;;;;5.67;92.40;95534.31;5091997;28;20225;-76
2020/12/04 07:41:52;;;;;;;12.43;5.63;;;;;;;6.02;89.82;95527.19;5099365;28;20217;-76
2020/12/04 07:44:25;;;;;;;12.07;5.70;;;;;;;6.04;88.11;95531.19;5096938;28;20718;-75
2020/12/04 07:47:02;;;;;;;11.30;4.87;;;;;;;6.17;85.74;95530.97;5090412;28;20210;-75
2020/12/04 07:49:30;;;;;;;12.67;5.97;;;;;;;6.16;86.90;95516.13;5100126;28;20197;-75
2020/12/04 07:52:10;;;;;;;11.00;5.60;;;;;;;6.02;85.90;95508.66;5110551;28;20213;-75
2020/12/04 07:54:37;;;;;;;13.10;5.73;;;;;;;6.20;88.47;95511.16;5099316;28;20242;-73
2020/12/04 07:57:04;;;;;;;10.33;5.60;;;;;;;6.40;86.98;95524.81;5101577;28;20689;-75
2020/12/04 07:59:32;;;;;;;10.97;5.90;;;;;;;5.95;90.24;95511.41;5096124;28;21910;-75
2020/12/04 08:01:59;;;;;;;13.97;5.80;;;;;;;6.22;88.15;95520.47;5090498;28;20234;-75
2020/12/04 08:04:26;;;;;;;11.60;5.80;;;;;;;6.26;89.04;95542.00;5101535;28;20191;-73
2020/12/04 08:07:06;;;;;;;14.00;6.13;;;;;;;5.74;90.46;95508.56;5081185;28;20212;-76
2020/12/04 08:09:38;;;;;;;11.33;5.70;;;;;;;6.24;85.48;95512.31;5090138;28;20590;-74
2020/12/04 08:12:16;;;;;;;11.27;5.53;;;;;;;6.33;85.93;95510.88;5095523;28;20280;-75
2020/12/04 08:14:49;;;;;;;11.67;5.50;;;;;;;6.01;86.19;95502.56;5097026;28;20596;-75
2020/12/04 08:17:19;;;;;;;9.80;5.03;;;;;;;6.28;83.53;95495.69;5099255;28;20230;-73
2020/12/04 08:19:46;;;;;;;10.40;5.37;;;;;;;6.26;85.62;95497.78;5092082;28;20267;-73
2020/12/04 08:22:12;;;;;;;10.33;5.53;;;;;;;6.25;86.36;95479.47;5087525;28;20232;-75
2020/12/04 08:24:42;;;;;;;11.93;5.00;;;;;;;6.29;86.86;95476.13;5099370;28;20770;-75
2020/12/04 08:27:11;;;;;;;9.90;5.40;;;;;;;6.57;83.65;95473.47;5097187;28;20582;-74
2020/12/04 08:29:39;;;;;;;11.63;5.97;;;;;;;6.60;84.50;95465.03;5096191;28;20196;-75
2020/12/04 08:32:20;;;;;;;11.73;5.60;;;;;;;6.74;83.72;95454.94;5087735;28;20229;-74
2020/12/04 08:34:48;;;;;;;14.17;5.73;;;;;;;6.73;85.96;95456.00;5087833;28;20299;-74
2020/12/04 08:37:16;;;;;;;14.57;5.97;;;;;;;6.39;85.90;95439.22;5093620;28;20196;-73
2020/12/04 08:39:46;;;;;;;10.07;5.27;;;;;;;6.52;84.12;95432.84;5102564;28;20289;-74
2020/12/04 08:42:22;;;;;;;12.87;5.00;;;;;;;6.39;86.83;95438.44;5095997;28;20275;-74
2020/12/04 08:45:03;;;;;;;11.43;5.27;;;;;;;6.87;83.82;95444.03;5097701;28;20185;-74
2020/12/04 08:47:33;;;;;;;12.47;5.27;;;;;;;7.07;83.10;95450.50;5087956;28;20201;-76
2020/12/04 08:50:15;;;;;;;12.83;5.00;;;;;;;6.35;84.67;95458.50;5094231;28;20259;-74
2020/12/04 08:52:44;;;;;;;8.50;4.37;;;;;;;6.87;84.04;95436.91;5099414;28;20241;-74
2020/12/04 08:55:14;;;;;;;14.60;5.30;;;;;;;6.73;85.08;95440.91;5091222;28;20226;-74
2020/12/04 08:57:42;;;;;;;11.37;5.30;;;;;;;6.65;82.26;95454.53;5095705;28;20198;-73
2020/12/04 09:00:11;;;;;;;15.30;7.47;;;;;;;7.29;80.27;95455.84;5089321;28;20208;-77
2020/12/04 09:02:39;;;;;;;13.60;5.33;;;;;;;7.53;77.20;95459.94;5089012;28;20211;-73
2020/12/04 09:05:10;;;;;;;8.93;5.07;;;;;;;7.69;75.38;95475.00;5092713;28;20200;-76
2020/12/04 09:07:38;;;;;;;10.07;4.77;;;;;;;7.21;76.74;95478.28;5093534;28;20197;-75
2020/12/04 09:10:07;;;;;;;9.27;5.20;;;;;;;7.03;77.19;95467.91;5093702;28;20250;-73
2020/12/04 09:12:36;;;;;;;12.03;5.40;;;;;;;7.32;75.76;95476.59;5097842;28;20260;-75
2020/12/04 09:15:05;;;;;;;10.57;5.23;;;;;;;7.70;74.11;95482.75;5090591;28;20262;-79
2020/12/04 09:17:33;;;;;;;10.27;5.07;;;;;;;7.80;73.73;95493.50;5091135;28;20575;-75
2020/12/04 09:20:00;;;;;;;9.37;5.23;;;;;;;7.38;75.56;95502.16;5101304;28;20196;-75
2020/12/04 09:22:27;;;;;;;15.40;5.87;;;;;;;6.73;79.89;95501.03;5093386;28;20196;-75
2020/12/04 09:24:54;;;;;;;10.47;5.03;;;;;;;6.87;80.87;95499.72;5090374;28;20196;-76
2020/12/04 09:27:21;;;;;;;11.50;5.67;;;;;;;7.18;80.34;95499.19;5095240;28;20223;-77
2020/12/04 09:29:49;;;;;;;13.27;6.77;;;;;;;6.74;83.58;95490.22;5088774;28;20215;-76
2020/12/04 09:32:17;;;;;;;11.87;5.80;;;;;;;7.23;79.26;95492.13;5089754;28;20696;-76
2020/12/04 09:34:46;;;;;;;13.83;5.80;;;;;;;6.32;83.87;95480.94;5087978;28;20217;-78
2020/12/04 09:37:16;;;;;;;17.00;5.97;;;;;;;6.41;83.04;95460.19;5091138;28;20199;-77
2020/12/04 09:39:44;;;;;;;12.70;5.67;;;;;;;6.72;80.96;95472.94;5104322;28;20199;-76
2020/12/04 09:42:12;;;;;;;10.00;5.13;;;;;;;6.70;77.32;95486.41;5101576;28;20291;-76
2020/12/04 09:44:39;;;;;;;11.47;6.63;;;;;;;6.32;82.77;95475.66;5089902;28;20200;-77
2020/12/04 09:47:07;;;;;;;11.53;5.50;;;;;;;6.53;81.81;95464.41;5104261;28;20208;-79
2020/12/04 09:49:34;;;;;;;16.03;6.07;;;;;;;7.05;79.39;95465.81;5098732;28;20287;-76
2020/12/04 09:52:01;;;;;;;10.07;5.10;;;;;;;7.04;79.89;95456.25;5095654;28;20216;-76
2020/12/04 09:54:29;;;;;;;13.50;5.60;;;;;;;6.99;79.95;95448.22;5099744;28;20230;-77
2020/12/04 09:56:56;;;;;;;14.43;6.43;;;;;;;7.75;75.73;95444.84;5095714;28;20271;-75
2020/12/04 09:59:24;;;;;;;12.70;5.53;;;;;;;7.72;77.38;95440.81;5092154;28;20211;-76
2020/12/04 10:01:52;;;;;;;10.67;5.70;;;;;;;7.96;74.14;95444.84;5088057;28;20217;-76
2020/12/04 10:04:20;;;;;;;12.87;7.03;;;;;;;7.21;76.68;95437.72;5088164;28;20295;-77
2020/12/04 10:06:47;;;;;;;12.47;6.03;;;;;;;7.60;76.42;95445.44;5093935;28;20679;-78
2020/12/04 10:09:14;;;;;;;13.83;5.50;;;;;;;7.06;78.32;95430.31;5086648;28;20204;-76
2020/12/04 10:11:42;;;;;;;18.27;6.10;;;;;;;7.47;77.13;95429.06;5087417;28;20254;-77
2020/12/04 10:14:09;;;;;;;11.93;5.50;;;;;;;7.77;76.40;95454.16;5090969;28;20662;-77
2020/12/04 10:16:37;;;;;;;10.80;5.33;;;;;;;7.87;75.39;95456.16;5088216;28;20200;-78
2020/12/04 10:19:04;;;;;;;19.00;6.50;;;;;;;7.89;75.98;95446.91;5086337;28;20196;-77
2020/12/04 10:21:34;;;;;;;13.03;5.40;;;;;;;7.89;75.70;95464.69;5093625;28;20759;-77
2020/12/04 10:24:02;;;;;;;10.53;5.17;;;;;;;8.08;72.67;95482.72;5089945;28;20221;-77
2020/12/04 10:26:30;;;;;;;11.77;5.43;;;;;;;7.67;75.85;95477.13;5092185;28;20199;-77
2020/12/04 10:28:57;;;;;;;10.33;5.47;;;;;;;7.66;74.45;95486.94;5092724;28;20230;-77
2020/12/04 10:31:24;;;;;;;11.50;6.17;;;;;;;8.04;71.89;95499.38;5093969;28;20220;-78
2020/12/04 10:33:51;;;;;;;11.40;5.77;;;;;;;7.86;73.03;95489.88;5088633;28;20297;-76
2020/12/04 10:36:18;;;;;;;10.30;5.13;;;;;;;7.82;74.55;95472.81;5092964;28;20195;-76
2020/12/04 10:38:45;;;;;;;13.00;6.10;;;;;;;7.24;78.88;95467.19;5092434;28;20680;-77
2020/12/04 10:41:12;;;;;;;15.83;6.30;;;;;;;7.47;78.31;95469.66;5091005;28;20216;-76
2020/12/04 10:43:39;;;;;;;11.23;5.80;;;;;;;7.80;73.96;95477.56;5098772;28;20279;-77
2020/12/04 10:46:06;;;;;;;9.83;5.57;;;;;;;7.48;74.73;95483.75;5087432;28;20229;-78
2020/12/04 10:48:33;;;;;;;9.67;5.10;;;;;;;7.67;76.69;95483.22;5090120;28;20282;-76
2020/12/04 10:51:01;;;;;;;10.87;5.57;;;;;;;8.00;76.03;95496.44;5095009;28;20317;-79
2020/12/04 10:53:29;;;;;;;9.97;6.03;;;;;;;7.37;78.00;95484.63;5091236;28;20224;-77
2020/12/04 10:55:57;;;;;;;12.87;5.43;;;;;;;7.19;80.35;95475.06;5093567;28;20184;-76
2020/12/04 10:58:24;;;;;;;10.97;5.27;;;;;;;7.55;77.45;95460.47;5106090;28;20220;-78
2020/12/04 11:00:51;;;;;;;12.87;5.40;;;;;;;7.37;77.28;95426.28;5099635;28;20219;-75
2020/12/04 11:03:27;;;;;;;10.57;5.43;;;;;;;7.11;79.32;95417.13;5107726;28;20218;-76
2020/12/04 11:05:56;;;;;;;13.17;5.80;;;;;;;7.48;80.90;95435.97;5102157;28;20203;-76
2020/12/04 11:08:22;;;;;;;10.87;5.40;;;;;;;7.71;77.20;95467.63;5093709;28;20620;-75
2020/12/04 11:10:51;;;;;;;11.20;5.43;;;;;;;7.83;75.91;95477.09;5090199;28;20592;-77
2020/12/04 11:13:19;;;;;;;12.07;5.83;;;;;;;6.84;83.53;95445.31;5084799;28;20254;-81
2020/12/04 11:15:48;;;;;;;8.27;4.50;;;;;;;7.65;75.75;95456.13;5082200;28;20206;-74
2020/12/04 11:18:16;;;;;;;11.20;4.90;;;;;;;8.06;72.62;95463.56;5085690;28;20218;-76
2020/12/04 11:20:43;;;;;;;12.07;5.50;;;;;;;8.22;71.41;95454.75;5088284;28;20702;-75
2020/12/04 11:23:10;;;;;;;10.77;5.00;;;;;;;7.67;75.36;95426.69;5087431;28;20217;-74
2020/12/04 11:25:38;;;;;;;11.97;5.70;;;;;;;7.32;79.45;95404.97;5089433;28;20209;-74
2020/12/04 11:28:05;;;;;;;11.90;5.47;;;;;;;7.47;78.20;95383.97;5086703;28;20292;-75
2020/12/04 11:30:33;;;;;;;14.53;6.20;;;;;;;7.46;80.02;95385.03;5085566;28;20714;-76
2020/12/04 11:33:00;;;;;;;11.43;5.30;;;;;;;7.85;79.58;95427.19;5087543;28;20218;-77
2020/12/04 11:35:27;;;;;;;12.40;5.97;;;;;;;7.38;80.88;95434.00;5088717;28;20543;-76
2020/12/04 11:37:57;;;;;;;10.27;5.17;;;;;;;7.47;81.37;95407.84;5078859;28;20690;-76